Time;durP1;ratioP1;P1;durP2;ratioP2;P2;SDS_P1;SDS_P2;PMS_P1;PMS_P2;Temp;Humidity;BMP_temperature;BMP_pressure;BME280_temperature;BME280_humidity;BME280_pressure;Samples;Min_cycle;Max_cycle;Signal;HPM_P1;HPM_P2
2021/12/12 00:01:45;;;;;;;14.37;5.33;;;;;;;5.00;73.61;101497.19;5023655;28;20206;-67
2021/12/12 00:04:17;;;;;;;15.90;5.37;;;;;;;5.06;73.00;101491.56;5018268;28;20766;-67
2021/12/12 00:06:50;;;;;;;11.57;4.97;;;;;;;4.75;74.16;101490.66;5027898;28;20205;-68
2021/12/12 00:09:21;;;;;;;19.73;5.60;;;;;;;5.08;72.80;101498.44;5027483;28;20212;-67
2021/12/12 00:11:49;;;;;;;12.83;4.93;;;;;;;5.21;72.80;101502.03;5024406;28;20805;-67
2021/12/12 00:14:22;;;;;;;13.50;5.03;;;;;;;5.35;72.01;101503.88;5021156;28;20221;-69
2021/12/12 00:16:50;;;;;;;16.13;4.77;;;;;;;5.06;72.60;101507.34;5025001;28;20266;-68
2021/12/12 00:19:22;;;;;;;13.67;4.97;;;;;;;5.24;71.51;101507.13;5027552;28;20217;-68
2021/12/12 00:21:54;;;;;;;15.77;4.97;;;;;;;5.45;70.68;101506.81;5024520;28;20209;-68
2021/12/12 00:24:22;;;;;;;11.80;4.77;;;;;;;5.21;71.77;101522.22;5026747;28;20368;-68
2021/12/12 00:26:52;;;;;;;15.40;5.10;;;;;;;5.05;71.75;101518.78;5020201;28;20209;-67
2021/12/12 00:29:21;;;;;;;12.00;4.73;;;;;;;5.01;72.03;101520.75;5025873;28;20576;-68
2021/12/12 00:31:52;;;;;;;13.37;5.17;;;;;;;4.66;73.16;101517.44;5026729;28;20351;-67
2021/12/12 00:34:24;;;;;;;14.40;5.17;;;;;;;4.68;72.85;101525.25;5027316;28;20287;-67
2021/12/12 00:36:52;;;;;;;13.40;5.33;;;;;;;4.36;74.24;101532.28;5021536;28;20209;-70
2021/12/12 00:39:25;;;;;;;14.80;5.43;;;;;;;4.09;74.73;101542.47;5027741;28;20304;-68
2021/12/12 00:41:57;;;;;;;10.63;4.77;;;;;;;4.44;74.71;101530.94;5021785;28;20240;-68
2021/12/12 00:44:27;;;;;;;12.67;4.83;;;;;;;4.81;72.31;101529.75;5014418;28;20264;-68
2021/12/12 00:46:57;;;;;;;13.00;6.50;;;;;;;4.72;72.13;101527.63;5023117;28;20230;-68
2021/12/12 00:49:28;;;;;;;17.27;5.13;;;;;;;4.34;73.33;101523.63;5023932;28;20933;-67
2021/12/12 00:51:56;;;;;;;21.20;6.80;;;;;;;4.69;73.21;101529.56;5023700;28;20311;-67
2021/12/12 00:54:31;;;;;;;15.90;5.77;;;;;;;4.41;73.18;101528.47;5025517;28;20243;-66
2021/12/12 00:57:00;;;;;;;13.10;6.30;;;;;;;4.39;73.42;101521.63;5033033;28;20250;-66
2021/12/12 00:59:28;;;;;;;14.10;5.90;;;;;;;4.40;73.44;101518.88;5033871;28;20213;-68
2021/12/12 01:01:58;;;;;;;14.40;5.90;;;;;;;4.65;72.79;101521.03;5028283;28;20307;-67
2021/12/12 01:04:32;;;;;;;12.37;5.70;;;;;;;4.21;74.11;101509.47;5030083;28;20293;-68
2021/12/12 01:07:06;;;;;;;13.73;5.00;;;;;;;4.15;74.49;101511.47;5026679;28;20229;-67
2021/12/12 01:09:40;;;;;;;13.43;4.87;;;;;;;4.29;73.74;101515.16;5027800;28;20752;-67
2021/12/12 01:12:11;;;;;;;13.47;5.47;;;;;;;3.92;76.08;101521.50;5030407;28;20217;-67
2021/12/12 01:14:42;;;;;;;14.50;5.10;;;;;;;3.70;76.59;101522.59;5020759;28;20243;-67
2021/12/12 01:17:13;;;;;;;12.57;5.30;;;;;;;3.72;76.96;101523.38;5030557;28;20215;-67
2021/12/12 01:19:45;;;;;;;12.10;5.00;;;;;;;3.83;77.06;101532.47;5027973;28;20217;-67
2021/12/12 01:22:22;;;;;;;13.80;5.10;;;;;;;4.01;76.50;101536.78;5026769;28;20307;-67
2021/12/12 01:24:52;;;;;;;10.83;4.93;;;;;;;4.24;75.23;101538.16;5028823;28;20232;-67
2021/12/12 01:27:21;;;;;;;10.37;4.80;;;;;;;4.21;75.06;101540.97;5027956;28;20249;-67
2021/12/12 01:29:52;;;;;;;11.87;4.73;;;;;;;4.45;74.27;101543.13;5026938;28;20230;-69
2021/12/12 01:32:26;;;;;;;10.60;4.90;;;;;;;3.99;75.36;101542.09;5023792;28;20214;-67
2021/12/12 01:34:58;;;;;;;12.57;4.80;;;;;;;4.66;73.61;101535.84;5027915;28;20219;-67
2021/12/12 01:37:39;;;;;;;10.40;4.77;;;;;;;4.54;74.22;101547.03;5036397;28;20211;-67
2021/12/12 01:40:14;;;;;;;13.77;4.27;;;;;;;4.90;72.93;101546.78;5035809;28;20756;-69
2021/12/12 01:42:45;;;;;;;14.97;5.23;;;;;;;4.78;72.83;101542.22;5030165;28;20213;-67
2021/12/12 01:45:17;;;;;;;14.00;4.77;;;;;;;4.47;73.84;101540.44;5021030;28;20585;-67
2021/12/12 01:47:49;;;;;;;13.67;5.20;;;;;;;4.45;73.93;101543.13;5022052;28;20222;-67
2021/12/12 01:50:22;;;;;;;13.20;5.07;;;;;;;4.37;73.91;101550.56;5027121;28;20749;-68
2021/12/12 01:52:51;;;;;;;11.67;4.63;;;;;;;4.48;74.80;101552.63;5031964;28;20217;-67
2021/12/12 01:55:24;;;;;;;13.87;4.73;;;;;;;4.04;75.41;101552.38;5019910;28;20287;-67
2021/12/12 01:57:54;;;;;;;14.13;4.57;;;;;;;4.31;74.95;101557.94;5049822;28;20677;-67
2021/12/12 02:00:30;;;;;;;10.67;4.73;;;;;;;4.61;74.12;101556.28;5046789;28;20219;-68
2021/12/12 02:02:59;;;;;;;12.57;4.43;;;;;;;4.42;74.46;101553.78;5045022;28;20237;-67
2021/12/12 02:05:30;;;;;;;14.07;4.93;;;;;;;4.34;74.92;101539.38;5046732;28;20226;-67
2021/12/12 02:08:00;;;;;;;10.07;4.70;;;;;;;4.20;75.32;101547.16;5045989;28;20740;-66
2021/12/12 02:10:31;;;;;;;14.37;4.60;;;;;;;4.11;75.58;101544.09;5048442;28;20671;-67
2021/12/12 02:13:01;;;;;;;12.60;4.40;;;;;;;4.45;75.03;101537.88;5045184;28;20218;-67
2021/12/12 02:15:31;;;;;;;15.23;5.73;;;;;;;3.83;76.98;101549.06;5048088;28;20207;-67
2021/12/12 02:18:00;;;;;;;16.37;4.27;;;;;;;3.80;76.81;101554.47;5047560;28;20250;-67
2021/12/12 02:20:38;;;;;;;16.90;4.30;;;;;;;4.29;75.81;101557.16;5048727;28;20303;-68
2021/12/12 02:23:16;;;;;;;10.27;4.07;;;;;;;4.44;74.38;101564.22;5046868;28;20217;-68
2021/12/12 02:36:55;;;;;;;9.23;3.70;;;;;;;4.70;73.43;101557.56;5041781;28;20699;-67
2021/12/12 02:39:24;;;;;;;8.57;4.33;;;;;;;3.94;75.49;101556.41;5046670;28;20247;-67
2021/12/12 02:41:56;;;;;;;10.83;4.40;;;;;;;4.40;74.54;101554.78;5046870;28;20222;-67
2021/12/12 02:44:31;;;;;;;12.27;4.30;;;;;;;4.30;74.38;101543.13;5049042;28;20625;-67
2021/12/12 02:47:08;;;;;;;9.47;3.60;;;;;;;4.51;74.18;101541.94;5047364;28;20254;-66
2021/12/12 02:49:40;;;;;;;11.30;4.30;;;;;;;3.83;75.88;101532.47;5045027;28;20211;-68
2021/12/12 02:52:12;;;;;;;9.60;4.07;;;;;;;3.48;78.20;101532.50;5045533;28;20239;-67
2021/12/12 02:54:41;;;;;;;13.27;5.00;;;;;;;3.78;77.80;101545.84;5046552;28;20262;-67
2021/12/12 02:57:10;;;;;;;13.00;4.07;;;;;;;3.42;79.19;101537.22;5030143;28;20330;-67
2021/12/12 02:59:41;;;;;;;12.53;5.27;;;;;;;3.12;80.43;101534.31;5028422;28;20210;-68
2021/12/12 03:02:12;;;;;;;20.23;5.03;;;;;;;3.54;79.02;101537.44;5023566;28;20251;-67
2021/12/12 03:04:41;;;;;;;16.83;4.43;;;;;;;3.62;78.88;101537.88;5027929;28;20768;-67
2021/12/12 03:07:11;;;;;;;13.37;4.10;;;;;;;3.66;78.56;101538.59;5025324;28;20277;-67
2021/12/12 03:09:46;;;;;;;11.97;4.27;;;;;;;3.91;77.77;101544.28;5028887;28;20295;-67
2021/12/12 03:12:17;;;;;;;21.53;5.10;;;;;;;3.59;78.20;101532.81;5024683;28;20225;-67
2021/12/12 03:14:47;;;;;;;8.40;4.03;;;;;;;3.70;78.21;101533.09;5034932;28;20843;-68
2021/12/12 03:17:20;;;;;;;16.80;5.00;;;;;;;3.55;78.71;101533.03;5032312;28;20309;-66
2021/12/12 03:19:49;;;;;;;14.37;4.80;;;;;;;3.23;80.43;101534.66;5013836;28;20274;-67
2021/12/12 03:22:17;;;;;;;17.73;5.80;;;;;;;3.55;79.08;101533.88;5027930;28;20217;-67
2021/12/12 03:24:47;;;;;;;16.97;4.87;;;;;;;3.79;78.28;101526.53;5030490;28;20683;-67
2021/12/12 03:27:16;;;;;;;14.63;4.47;;;;;;;3.73;78.43;101543.44;5030625;28;20688;-66
2021/12/12 03:29:46;;;;;;;10.70;3.90;;;;;;;4.04;77.15;101536.63;5026003;28;20733;-67
2021/12/12 03:32:16;;;;;;;9.83;3.83;;;;;;;4.18;75.36;101546.38;5025737;28;20214;-67
2021/12/12 03:34:47;;;;;;;11.07;3.37;;;;;;;3.29;79.32;101540.44;5022132;28;20218;-68
2021/12/12 03:37:18;;;;;;;9.60;3.77;;;;;;;3.57;78.33;101542.53;5032072;28;20212;-66
2021/12/12 03:39:50;;;;;;;8.47;3.43;;;;;;;3.49;78.53;101549.94;5032951;28;20213;-69
2021/12/12 03:42:22;;;;;;;9.63;3.23;;;;;;;3.56;78.38;101550.47;5029177;28;20723;-66
2021/12/12 03:44:52;;;;;;;11.03;2.93;;;;;;;3.39;78.65;101554.78;5024468;28;21034;-68
2021/12/12 03:47:24;;;;;;;12.57;3.23;;;;;;;3.51;79.05;101547.25;5026759;28;20750;-67
2021/12/12 03:49:52;;;;;;;9.10;2.80;;;;;;;3.45;79.20;101552.78;5031266;28;20218;-68
2021/12/12 03:52:23;;;;;;;7.90;2.83;;;;;;;3.75;77.33;101546.00;5029585;28;20203;-67
2021/12/12 03:54:53;;;;;;;10.00;2.87;;;;;;;3.68;77.94;101544.63;5028568;28;20807;-67
2021/12/12 03:57:22;;;;;;;8.47;2.90;;;;;;;3.30;79.22;101550.00;5043557;28;20249;-67
2021/12/12 03:59:50;;;;;;;10.00;3.03;;;;;;;3.30;79.79;101539.50;5045187;28;20206;-67
2021/12/12 04:02:18;;;;;;;9.07;2.97;;;;;;;3.45;79.44;101543.13;5048825;28;20213;-67
2021/12/12 04:04:47;;;;;;;9.53;3.00;;;;;;;3.35;79.80;101547.13;5045778;28;20303;-67
2021/12/12 04:07:18;;;;;;;8.47;2.97;;;;;;;3.32;79.70;101548.16;5043305;28;20234;-66
2021/12/12 04:09:46;;;;;;;10.53;3.20;;;;;;;3.32;80.08;101542.06;5044131;28;20280;-66
2021/12/12 04:12:18;;;;;;;8.33;2.97;;;;;;;3.23;80.02;101539.91;5043019;28;20707;-66
2021/12/12 04:14:47;;;;;;;11.40;2.80;;;;;;;3.42;79.64;101542.47;5044853;28;20244;-66
2021/12/12 04:17:18;;;;;;;8.03;3.50;;;;;;;3.21;79.94;101545.19;5041858;28;20223;-67
2021/12/12 04:19:49;;;;;;;7.57;2.93;;;;;;;3.34;79.21;101546.28;5045297;28;20218;-66
2021/12/12 04:22:17;;;;;;;6.77;2.80;;;;;;;3.31;80.11;101535.97;5045578;28;20689;-66
2021/12/12 04:24:47;;;;;;;10.53;2.47;;;;;;;3.17;80.49;101537.53;5044366;28;20293;-66
2021/12/12 04:27:18;;;;;;;8.10;2.50;;;;;;;3.25;79.97;101552.00;5041603;28;20229;-67
2021/12/12 04:29:48;;;;;;;10.07;2.40;;;;;;;2.90;81.46;101547.63;5047364;28;20293;-68
2021/12/12 04:32:19;;;;;;;8.47;2.77;;;;;;;3.31;80.14;101564.81;5047255;28;20285;-67
2021/12/12 04:34:52;;;;;;;8.80;2.47;;;;;;;3.14;80.35;101572.66;5047484;28;20592;-67
2021/12/12 04:37:22;;;;;;;10.87;2.90;;;;;;;3.23;79.89;101564.34;5047555;28;20683;-67
2021/12/12 04:39:54;;;;;;;7.30;2.27;;;;;;;3.46;79.20;101559.72;5048325;28;20208;-67
2021/12/12 04:42:25;;;;;;;8.80;2.83;;;;;;;3.47;78.93;101569.28;5048270;28;20221;-66
2021/12/12 04:44:56;;;;;;;14.30;3.00;;;;;;;3.48;79.07;101568.38;5049191;28;20243;-66
2021/12/12 04:50:32;;;;;;;6.13;2.60;;;;;;;3.41;79.01;101570.44;5048392;28;20309;-66
2021/12/12 04:53:04;;;;;;;9.23;3.00;;;;;;;3.58;78.31;101570.47;5040827;28;20210;-67
2021/12/12 04:55:38;;;;;;;7.30;2.53;;;;;;;3.35;79.61;101573.34;5044613;28;20296;-67
2021/12/12 04:58:11;;;;;;;8.33;2.73;;;;;;;3.37;79.31;101576.75;5029816;28;20305;-68
2021/12/12 05:00:46;;;;;;;12.50;2.20;;;;;;;3.55;78.65;101580.25;5034987;28;20547;-67
2021/12/12 05:03:17;;;;;;;6.13;2.30;;;;;;;3.67;78.12;101583.13;5029110;28;20213;-66
2021/12/12 05:05:54;;;;;;;8.17;2.33;;;;;;;3.71;78.00;101578.53;5021697;28;20231;-68
2021/12/12 05:08:27;;;;;;;8.77;3.17;;;;;;;3.51;78.73;101579.56;5032500;28;20269;-67
2021/12/12 05:11:00;;;;;;;8.07;2.73;;;;;;;3.35;79.12;101576.81;5038653;28;20307;-67
2021/12/12 05:13:34;;;;;;;13.90;3.00;;;;;;;3.43;79.19;101580.88;5034210;28;20235;-67
2021/12/12 05:16:08;;;;;;;11.40;3.13;;;;;;;3.57;78.69;101587.13;5028839;28;20215;-67
2021/12/12 05:18:41;;;;;;;10.20;3.00;;;;;;;3.47;78.82;101578.00;5025387;28;20318;-66
2021/12/12 05:21:12;;;;;;;7.40;3.07;;;;;;;3.57;78.68;101587.13;5025588;28;20301;-66
2021/12/12 05:23:46;;;;;;;8.13;2.67;;;;;;;3.42;78.98;101594.91;5026287;28;20522;-67
2021/12/12 05:26:16;;;;;;;5.63;2.77;;;;;;;3.51;79.27;101597.06;5029613;28;20232;-68
2021/12/12 05:28:49;;;;;;;9.33;3.60;;;;;;;3.57;78.52;101588.88;5029005;28;20226;-68
2021/12/12 05:31:21;;;;;;;8.93;2.80;;;;;;;3.71;78.45;101589.03;5024893;28;20219;-66
2021/12/12 05:33:52;;;;;;;8.07;2.97;;;;;;;3.53;79.35;101597.81;5024353;28;20218;-67
2021/12/12 05:36:21;;;;;;;11.90;3.27;;;;;;;3.28;80.22;101590.31;5027359;28;20291;-67
2021/12/12 05:38:49;;;;;;;10.20;4.33;;;;;;;3.24;80.76;101594.88;5022447;28;20211;-67
2021/12/12 05:41:23;;;;;;;11.20;3.33;;;;;;;3.36;80.52;101596.88;5022004;28;20203;-66
2021/12/12 05:43:55;;;;;;;12.03;3.23;;;;;;;3.16;81.32;101591.78;5025131;28;20211;-66
2021/12/12 05:46:25;;;;;;;7.37;3.37;;;;;;;3.28;80.99;101592.94;5026799;28;20214;-67
2021/12/12 05:48:54;;;;;;;11.70;3.50;;;;;;;3.18;81.36;101602.16;5027094;28;20279;-69
2021/12/12 05:51:23;;;;;;;12.57;3.70;;;;;;;3.68;79.70;101600.56;5026956;28;20202;-67
2021/12/12 05:53:52;;;;;;;9.00;4.13;;;;;;;3.64;79.05;101606.88;5019244;28;20218;-67
2021/12/12 05:56:23;;;;;;;9.53;3.47;;;;;;;3.55;79.61;101606.47;5028140;28;20257;-67
2021/12/12 05:58:53;;;;;;;10.53;3.87;;;;;;;3.65;79.87;101608.56;5025900;28;20223;-67
2021/12/12 06:01:22;;;;;;;12.13;4.37;;;;;;;3.36;80.53;101611.75;5027107;28;20270;-67
2021/12/12 06:03:51;;;;;;;17.67;4.43;;;;;;;3.78;79.84;101611.44;5028280;28;20241;-67
2021/12/12 06:06:21;;;;;;;11.53;4.43;;;;;;;3.78;78.73;101614.06;5028323;28;20913;-67
2021/12/12 06:08:50;;;;;;;11.53;4.63;;;;;;;3.40;80.49;101611.56;5027222;28;20258;-67
2021/12/12 06:11:26;;;;;;;12.00;4.30;;;;;;;3.57;79.82;101609.88;5020043;28;20724;-67
2021/12/12 06:13:56;;;;;;;12.33;4.57;;;;;;;3.65;79.76;101615.59;5022303;28;20222;-67
2021/12/12 06:16:25;;;;;;;10.23;5.07;;;;;;;3.62;79.90;101618.34;5024997;28;20207;-67
2021/12/12 06:18:56;;;;;;;15.17;4.33;;;;;;;3.46;80.50;101617.41;5027062;28;20909;-67
2021/12/12 06:21:25;;;;;;;9.37;4.27;;;;;;;3.68;80.09;101618.06;5025703;28;20219;-67
2021/12/12 06:23:53;;;;;;;10.13;4.80;;;;;;;3.62;80.36;101615.72;5026999;28;20226;-67
2021/12/12 06:26:22;;;;;;;11.07;4.90;;;;;;;3.66;80.02;101619.91;5026092;28;20298;-66
2021/12/12 06:28:51;;;;;;;13.53;5.33;;;;;;;3.56;81.00;101613.41;5023635;28;20243;-67
2021/12/12 06:31:21;;;;;;;13.40;4.70;;;;;;;3.47;80.79;101624.34;5024611;28;20295;-66
2021/12/12 06:33:49;;;;;;;14.03;5.13;;;;;;;3.66;79.67;101625.16;5025909;28;20656;-66
2021/12/12 06:36:18;;;;;;;9.17;4.73;;;;;;;3.45;80.95;101616.56;5027273;28;20250;-66
2021/12/12 06:38:49;;;;;;;21.87;6.23;;;;;;;3.48;81.17;101616.41;5026235;28;20303;-68
2021/12/12 06:41:18;;;;;;;11.40;5.40;;;;;;;3.51;81.09;101616.28;5024839;28;20216;-68
2021/12/12 06:43:47;;;;;;;9.07;4.83;;;;;;;3.45;81.52;101623.56;5025067;28;20262;-65
2021/12/12 06:46:15;;;;;;;13.37;5.50;;;;;;;3.47;81.43;101621.72;5028007;28;20213;-66
2021/12/12 06:48:46;;;;;;;12.63;5.93;;;;;;;3.35;82.02;101610.91;5025164;28;20319;-66
2021/12/12 06:51:15;;;;;;;11.73;4.77;;;;;;;3.47;81.58;101619.13;5028134;28;20304;-68
2021/12/12 06:53:46;;;;;;;12.93;5.27;;;;;;;3.34;82.27;101614.44;5024838;28;20211;-68
2021/12/12 06:56:16;;;;;;;12.50;5.23;;;;;;;3.51;81.42;101618.06;5036428;28;20329;-67
2021/12/12 06:58:46;;;;;;;14.73;4.83;;;;;;;3.58;80.69;101617.66;5047406;28;20218;-66
2021/12/12 07:01:19;;;;;;;11.60;4.97;;;;;;;3.49;81.40;101628.63;5046959;28;20219;-66
2021/12/12 07:03:54;;;;;;;14.40;5.53;;;;;;;3.28;82.21;101635.72;5040736;28;20265;-67
2021/12/12 07:06:26;;;;;;;10.50;5.60;;;;;;;3.36;81.99;101636.22;5046929;28;20218;-67
2021/12/12 07:08:58;;;;;;;9.67;4.60;;;;;;;3.50;81.07;101629.47;5046585;28;20234;-67
2021/12/12 07:11:27;;;;;;;11.97;4.80;;;;;;;3.49;81.27;101635.63;5044976;28;20604;-67
2021/12/12 07:13:56;;;;;;;13.50;5.63;;;;;;;3.44;81.17;101638.47;5046725;28;20214;-67
2021/12/12 07:16:24;;;;;;;12.67;5.23;;;;;;;3.36;81.96;101641.47;5044378;28;20681;-67
2021/12/12 07:18:56;;;;;;;15.00;5.90;;;;;;;3.36;81.42;101645.84;5046767;28;20221;-66
2021/12/12 07:21:25;;;;;;;12.27;5.40;;;;;;;3.23;82.36;101635.13;5046699;28;20789;-66
2021/12/12 07:23:54;;;;;;;13.30;5.13;;;;;;;3.51;80.90;101636.41;5034350;28;20727;-66
2021/12/12 07:26:24;;;;;;;9.57;4.33;;;;;;;3.52;80.73;101631.06;5047455;28;20278;-67
2021/12/12 07:28:54;;;;;;;13.90;4.60;;;;;;;3.55;80.86;101627.44;5048065;28;20244;-66
2021/12/12 07:31:25;;;;;;;13.50;5.00;;;;;;;3.57;80.35;101636.09;5045112;28;20210;-68
2021/12/12 07:33:58;;;;;;;13.37;4.83;;;;;;;3.51;80.33;101628.53;5045222;28;20211;-66
2021/12/12 07:36:30;;;;;;;11.00;4.60;;;;;;;3.47;80.44;101635.69;5046065;28;20292;-66
2021/12/12 07:39:00;;;;;;;11.03;4.13;;;;;;;3.51;80.26;101633.78;5047877;28;20585;-68
2021/12/12 07:41:31;;;;;;;12.10;4.63;;;;;;;3.60;80.23;101635.97;5047372;28;20578;-67
2021/12/12 07:44:00;;;;;;;9.90;4.50;;;;;;;3.42;81.15;101644.72;5043936;28;20217;-66
2021/12/12 07:46:29;;;;;;;10.50;5.32;;;;;;;3.47;80.56;101640.09;5043076;28;20446;-60
2021/12/12 07:49:00;;;;;;;10.30;4.23;;;;;;;3.74;79.77;101641.38;5046249;28;20573;-61
2021/12/12 07:51:30;;;;;;;10.83;4.70;;;;;;;3.79;79.30;101640.19;5046554;28;20203;-60
2021/12/12 07:54:03;;;;;;;9.40;4.30;;;;;;;3.87;78.57;101641.63;5044692;28;20277;-61
2021/12/12 07:56:34;;;;;;;11.37;4.30;;;;;;;3.73;79.24;101642.28;5045179;28;20258;-61
2021/12/12 07:59:05;;;;;;;8.27;4.43;;;;;;;3.53;79.87;101642.41;5037110;28;20212;-59
2021/12/12 08:01:34;;;;;;;9.80;4.93;;;;;;;3.71;79.59;101644.13;5032218;28;20216;-60
2021/12/12 08:04:04;;;;;;;9.20;4.80;;;;;;;3.74;79.17;101649.22;5044917;28;20272;-61
2021/12/12 08:06:33;;;;;;;10.00;4.50;;;;;;;3.72;78.95;101658.94;5047783;28;20687;-60
2021/12/12 08:09:02;;;;;;;12.33;4.70;;;;;;;3.74;78.99;101663.19;5048409;28;20692;-61
2021/12/12 08:11:33;;;;;;;13.10;4.70;;;;;;;3.58;79.65;101669.28;5047995;28;20221;-61
2021/12/12 08:14:04;;;;;;;9.53;4.60;;;;;;;3.56;80.00;101668.50;5048186;28;20304;-61
2021/12/12 08:16:32;;;;;;;10.40;4.03;;;;;;;3.86;78.63;101669.63;5052754;28;20214;-62
2021/12/12 08:19:03;;;;;;;8.50;4.27;;;;;;;3.86;78.56;101664.38;5051086;28;20213;-61
2021/12/12 08:21:33;;;;;;;12.07;3.97;;;;;;;4.16;77.71;101675.09;5033964;28;20606;-61
2021/12/12 08:24:05;;;;;;;11.27;4.20;;;;;;;3.78;78.84;101664.75;5037385;28;20663;-61
2021/12/12 08:26:33;;;;;;;9.30;4.60;;;;;;;3.95;78.30;101669.19;5035699;28;20583;-60
2021/12/12 08:29:02;;;;;;;10.20;4.77;;;;;;;3.93;78.70;101671.03;5030526;28;20253;-60
2021/12/12 08:31:30;;;;;;;11.70;4.53;;;;;;;3.92;78.53;101666.69;5052640;28;20215;-61
2021/12/12 08:34:06;;;;;;;10.50;4.33;;;;;;;3.99;78.59;101662.81;5047430;28;20246;-61
2021/12/12 08:36:35;;;;;;;11.57;4.70;;;;;;;4.07;78.60;101658.03;5047958;28;20811;-60
2021/12/12 08:39:04;;;;;;;10.13;4.20;;;;;;;4.06;78.92;101658.97;5038207;28;20225;-61
2021/12/12 08:41:32;;;;;;;11.17;4.70;;;;;;;4.01;78.64;101668.84;5035259;28;20247;-62
2021/12/12 08:44:01;;;;;;;9.27;4.63;;;;;;;4.09;78.38;101663.22;5048659;28;20238;-62
2021/12/12 08:46:29;;;;;;;9.30;4.17;;;;;;;4.11;78.67;101664.00;5048433;28;20310;-61
2021/12/12 08:48:57;;;;;;;14.20;5.03;;;;;;;4.10;78.46;101659.66;5045250;28;20242;-62
2021/12/12 08:51:31;;;;;;;11.60;4.77;;;;;;;4.20;78.20;101653.03;5045575;28;20222;-62
2021/12/12 08:54:03;;;;;;;14.30;4.97;;;;;;;4.43;77.39;101650.03;5050118;28;20210;-62
2021/12/12 08:56:42;;;;;;;10.63;4.67;;;;;;;4.46;77.33;101649.03;5050034;28;20243;-61
2021/12/12 08:59:11;;;;;;;12.63;4.77;;;;;;;4.35;77.60;101648.75;5044473;28;20876;-61
2021/12/12 09:01:40;;;;;;;14.13;5.53;;;;;;;4.18;78.00;101665.38;5046580;28;20537;-60
2021/12/12 09:04:09;;;;;;;12.83;4.60;;;;;;;4.13;78.31;101668.22;5043975;28;20211;-64
2021/12/12 09:07:02;;;;;;;7.90;4.70;;;;;;;4.35;77.74;101667.97;5036263;28;20223;-61
2021/12/12 09:09:38;;;;;;;8.63;4.17;;;;;;;4.19;77.97;101669.69;5046584;28;20234;-62
2021/12/12 09:12:12;;;;;;;15.93;4.50;;;;;;;4.22;78.39;101669.56;5040815;28;20208;-65
2021/12/12 09:14:45;;;;;;;11.20;4.33;;;;;;;4.37;78.33;101679.25;5038550;28;20812;-63
2021/12/12 09:17:17;;;;;;;11.70;4.50;;;;;;;4.47;77.21;101677.00;5032298;28;20294;-62
2021/12/12 09:19:49;;;;;;;9.63;4.40;;;;;;;4.47;77.61;101682.28;5043598;28;20219;-59
2021/12/12 09:22:24;;;;;;;13.97;5.30;;;;;;;4.33;78.23;101700.50;5045764;28;20212;-61
2021/12/12 09:24:57;;;;;;;12.57;4.73;;;;;;;4.19;79.07;101701.22;5043686;28;20433;-61
2021/12/12 09:27:28;;;;;;;9.83;4.80;;;;;;;4.10;79.85;101697.28;5049074;28;20196;-59
2021/12/12 09:29:59;;;;;;;10.33;5.43;;;;;;;4.23;79.62;101705.34;5048445;28;20622;-61
2021/12/12 09:32:33;;;;;;;12.90;5.30;;;;;;;4.28;79.53;101697.28;5043914;28;20303;-62
2021/12/12 09:35:09;;;;;;;12.57;4.97;;;;;;;4.10;80.25;101693.78;5044757;28;20270;-59
2021/12/12 09:37:42;;;;;;;9.77;5.70;;;;;;;4.13;80.30;101698.91;5048534;28;20219;-59
2021/12/12 09:40:21;;;;;;;11.10;5.70;;;;;;;4.31;79.62;101700.56;5049552;28;20628;-55
2021/12/12 09:43:11;;;;;;;12.27;5.43;;;;;;;4.24;79.91;101708.84;5049447;28;20316;-60
2021/12/12 09:45:55;;;;;;;12.80;4.77;;;;;;;4.40;79.42;101704.50;5047243;28;20295;-59
2021/12/12 09:52:01;;;;;;;11.07;5.80;;;;;;;4.48;79.12;101703.22;5005255;28;20820;-59
2021/12/12 09:54:40;;;;;;;10.87;5.20;;;;;;;4.47;79.59;101698.03;5040690;28;20227;-64
2021/12/12 09:57:15;;;;;;;17.87;5.40;;;;;;;4.39;80.53;101694.94;5047157;28;20787;-61
2021/12/12 10:00:02;;;;;;;11.60;5.83;;;;;;;4.29;80.06;101693.72;5040579;28;20211;-58
2021/12/12 10:02:36;;;;;;;13.40;5.37;;;;;;;4.33;80.42;101690.84;5044784;28;20251;-60
2021/12/12 10:05:13;;;;;;;13.60;6.53;;;;;;;4.40;80.14;101686.97;5043614;28;20218;-60
2021/12/12 10:07:52;;;;;;;12.70;5.83;;;;;;;4.32;80.84;101683.03;5046146;28;20630;-61
2021/12/12 10:10:28;;;;;;;15.43;6.10;;;;;;;4.38;80.53;101682.75;5045119;28;20231;-61
2021/12/12 10:13:01;;;;;;;14.00;6.23;;;;;;;4.50;80.17;101661.06;5040489;28;20208;-61
2021/12/12 10:15:30;;;;;;;11.10;5.90;;;;;;;4.38;80.73;101653.84;5040612;28;20234;-63
2021/12/12 10:18:03;;;;;;;15.43;6.37;;;;;;;4.55;80.36;101653.81;5038438;28;20670;-61
2021/12/12 10:20:37;;;;;;;11.47;5.50;;;;;;;4.57;79.88;101662.47;5035433;28;20220;-62
2021/12/12 10:23:13;;;;;;;12.70;5.50;;;;;;;4.68;79.36;101675.03;5038412;28;20208;-61
2021/12/12 10:25:52;;;;;;;11.83;5.87;;;;;;;4.64;79.74;101671.72;5037031;28;20218;-61
2021/12/12 10:28:23;;;;;;;12.83;6.17;;;;;;;4.57;79.90;101659.84;5040439;28;20295;-61
2021/12/12 10:30:59;;;;;;;14.53;6.00;;;;;;;4.79;79.71;101660.38;5043043;28;20705;-60
2021/12/12 10:33:32;;;;;;;11.13;5.43;;;;;;;4.69;79.78;101658.31;5039478;28;20258;-61
2021/12/12 10:36:05;;;;;;;15.17;6.00;;;;;;;4.67;79.77;101658.41;5037718;28;20215;-61
2021/12/12 10:38:39;;;;;;;11.73;5.27;;;;;;;4.57;79.88;101665.09;5041240;28;20247;-62
2021/12/12 10:41:14;;;;;;;11.80;5.33;;;;;;;4.76;79.39;101657.06;5043405;28;20702;-61
2021/12/12 10:43:54;;;;;;;11.60;5.40;;;;;;;4.63;79.43;101661.28;5047340;28;20203;-62
2021/12/12 10:46:29;;;;;;;10.07;5.63;;;;;;;4.67;79.67;101653.16;5047137;28;20227;-61
2021/12/12 10:49:04;;;;;;;14.27;5.80;;;;;;;4.59;80.02;101652.72;5045217;28;20216;-66
2021/12/12 10:51:40;;;;;;;12.00;5.50;;;;;;;4.52;80.24;101646.09;5049684;28;20204;-67
2021/12/12 10:54:13;;;;;;;11.83;6.17;;;;;;;4.85;79.32;101646.91;5045549;28;20211;-61
2021/12/12 10:56:46;;;;;;;10.10;5.33;;;;;;;4.59;79.52;101643.97;5033985;28;20316;-63
2021/12/12 10:59:22;;;;;;;11.70;4.90;;;;;;;4.63;79.74;101641.13;5027975;28;20563;-60
2021/12/12 11:01:54;;;;;;;10.93;5.30;;;;;;;4.79;78.97;101642.00;5025333;28;20215;-60
2021/12/12 11:04:24;;;;;;;9.13;5.57;;;;;;;4.74;79.12;101633.53;5026595;28;20211;-60
2021/12/12 11:06:56;;;;;;;13.67;5.73;;;;;;;4.84;78.88;101631.22;5021915;28;20212;-60
2021/12/12 11:09:30;;;;;;;9.47;5.10;;;;;;;4.87;78.89;101618.78;5024687;28;20299;-61
2021/12/12 11:12:10;;;;;;;10.27;5.17;;;;;;;5.10;77.76;101614.03;5023973;28;20299;-61
2021/12/12 11:14:42;;;;;;;14.43;5.53;;;;;;;5.12;77.55;101617.41;5024215;28;20647;-62
2021/12/12 11:17:14;;;;;;;11.27;5.53;;;;;;;5.06;77.93;101601.97;5024819;28;20295;-63
2021/12/12 11:19:49;;;;;;;10.17;4.83;;;;;;;5.02;77.47;101603.06;5024340;28;20236;-61
2021/12/12 11:22:25;;;;;;;11.57;5.50;;;;;;;5.04;77.52;101615.22;5022333;28;20217;-61
2021/12/12 11:24:59;;;;;;;17.17;5.63;;;;;;;5.19;77.50;101608.28;5017325;28;20308;-61
2021/12/12 11:27:33;;;;;;;10.20;4.70;;;;;;;5.12;77.62;101609.53;5026276;28;20293;-61
2021/12/12 11:30:09;;;;;;;11.47;4.77;;;;;;;5.24;77.37;101603.59;5025102;28;20234;-58
2021/12/12 11:32:38;;;;;;;11.13;4.80;;;;;;;5.34;77.07;101602.13;5028418;28;20208;-61
2021/12/12 11:35:09;;;;;;;8.90;4.87;;;;;;;5.09;77.55;101593.94;5025380;28;20215;-60
2021/12/12 11:37:42;;;;;;;8.77;4.83;;;;;;;5.20;77.65;101583.63;5020540;28;20245;-62
2021/12/12 11:40:19;;;;;;;11.23;4.57;;;;;;;5.39;76.24;101600.06;5025368;28;20232;-63
2021/12/12 11:42:52;;;;;;;7.00;4.33;;;;;;;5.34;76.77;101598.66;5025630;28;20263;-62
2021/12/12 11:45:25;;;;;;;9.73;4.77;;;;;;;5.40;76.49;101601.78;5024404;28;20236;-62
2021/12/12 11:47:59;;;;;;;14.10;5.00;;;;;;;5.63;76.13;101603.06;5024249;28;20679;-61
2021/12/12 11:50:36;;;;;;;12.27;5.60;;;;;;;5.76;78.99;101597.97;5030385;28;20256;-60
2021/12/12 11:53:06;;;;;;;7.37;3.90;;;;;;;5.71;77.01;101595.59;5012710;28;20833;-58
2021/12/12 11:55:38;;;;;;;9.37;4.53;;;;;;;5.76;77.02;101605.84;5026467;28;20677;-60
2021/12/12 11:58:20;;;;;;;11.03;4.77;;;;;;;5.85;76.81;101602.69;5032595;28;20209;-59
2021/12/12 12:00:55;;;;;;;10.07;4.77;;;;;;;5.57;76.63;101599.03;5024034;28;20215;-60
2021/12/12 12:03:28;;;;;;;18.57;4.47;;;;;;;5.73;78.05;101596.34;5019058;28;20226;-57
2021/12/12 12:06:13;;;;;;;9.10;4.23;;;;;;;5.75;75.90;101596.25;5015265;28;20244;-59